This is the latest recevied weather packets stored in our database for station/object EFTP. If no packets are shown the sender has not sent any weather packets the latest 10 day(s).
| Time | Temp. | Humidity | Pressure | Rain* | Wind** | Luminosity | Snow |
|---|---|---|---|---|---|---|---|
| 1777113990 | 6.67° C | 78% | 989.7 hPa | - | - | - | - |
| 1777112790 | 4.44° C | 85% | 990.1 hPa | - | - | - | - |
| 1777111590 | 7.22° C | 68% | 989.8 hPa | - | - | - | - |
| 1777110390 | 6.67° C | 70% | 990 hPa | - | - | - | - |
| 1777109190 | 6.67° C | 76% | 990.1 hPa | - | - | - | - |
| 1777107990 | 6.67° C | 71% | 990.2 hPa | - | - | - | - |
| 1777106790 | 5.56° C | 77% | 990.6 hPa | - | - | - | - |
| 1777105590 | 7.22° C | 61% | 990.5 hPa | - | - | - | - |
| 1777104390 | 7.22° C | 61% | 990.8 hPa | - | - | - | - |
| 1777103190 | 7.22° C | 62% | 991 hPa | - | - | - | - |
| 1777101990 | 6.67° C | 63% | 991.2 hPa | - | - | - | - |
| 1777100789 | 6.67° C | 64% | 991.4 hPa | - | - | - | - |
| 1777099589 | 6.11° C | 64% | 991.7 hPa | - | - | - | - |
| 1777098390 | 6.11° C | 65% | 992 hPa | - | - | - | - |
| 1777097189 | 6.11° C | 64% | 992.2 hPa | - | - | - | - |
| 1777095989 | 6.11° C | 66% | 992.4 hPa | - | - | - | - |
| 1777094789 | 5.56° C | 67% | 992.6 hPa | - | - | - | - |
| 1777093589 | 5° C | 71% | 992.8 hPa | - | - | - | - |
| 1777092389 | 4.44° C | 72% | 993.1 hPa | - | - | - | - |
| 1777091189 | 4.44° C | 72% | 993.4 hPa | - | - | - | - |
| 1777089988 | 4.44° C | 72% | 993.8 hPa | - | - | - | - |
| 1777088789 | 4.44° C | 73% | 994.2 hPa | - | - | - | - |
| 1777087589 | 4.44° C | 72% | 994.6 hPa | - | - | - | - |
| 1777086389 | 4.44° C | 70% | 994.9 hPa | - | - | - | - |
| 1777085188 | 4.44° C | 70% | 995.5 hPa | - | - | - | - |
* Rain since midnight (hover to see other rain measurements)
** Current wind speed in m/s (hover to see current wind gust speed)